createdAt,value
2019-03-27T00:02:14.058Z,3.22
2019-03-27T00:04:45.859Z,3.02
2019-03-27T00:07:16.048Z,3.60
2019-03-27T00:09:46.275Z,2.50
2019-03-27T00:12:16.488Z,3.30
2019-03-27T00:14:46.671Z,2.98
2019-03-27T00:17:16.872Z,3.12
2019-03-27T00:19:47.063Z,2.98
2019-03-27T00:22:17.284Z,3.27
2019-03-27T00:24:47.508Z,3.25
2019-03-27T00:27:17.831Z,3.00
2019-03-27T00:29:48.230Z,3.33
2019-03-27T00:32:18.404Z,2.90
2019-03-27T00:34:48.603Z,2.90
2019-03-27T00:37:18.823Z,3.55
2019-03-27T00:39:49.007Z,2.90
2019-03-27T00:42:19.172Z,3.40
2019-03-27T00:44:49.396Z,3.33
2019-03-27T00:47:19.560Z,3.35
2019-03-27T00:49:49.772Z,3.25
2019-03-27T00:52:19.984Z,3.22
2019-03-27T00:54:50.171Z,3.72
2019-03-27T00:57:20.393Z,2.77
2019-03-27T00:59:50.626Z,3.42
2019-03-27T01:02:23.780Z,3.47
2019-03-27T01:04:53.964Z,3.47
2019-03-27T01:07:24.184Z,3.50
2019-03-27T01:09:54.359Z,2.80
2019-03-27T01:12:24.594Z,3.27
2019-03-27T01:14:54.795Z,3.20
2019-03-27T01:17:25.008Z,3.40
2019-03-27T01:19:56.808Z,3.55
2019-03-27T01:22:27.099Z,3.58
2019-03-27T01:24:57.294Z,3.67
2019-03-27T01:27:27.529Z,3.77
2019-03-27T01:29:57.737Z,3.47
2019-03-27T01:32:29.468Z,3.10
2019-03-27T01:34:59.685Z,3.15
2019-03-27T01:37:29.892Z,3.40
2019-03-27T01:40:00.253Z,2.95
2019-03-27T01:42:30.677Z,3.65
2019-03-27T01:45:00.891Z,3.15
2019-03-27T01:47:31.081Z,4.12
2019-03-27T01:50:01.280Z,3.50
2019-03-27T01:52:31.496Z,3.17
2019-03-27T01:55:01.680Z,3.77
2019-03-27T01:57:32.105Z,3.75
2019-03-27T02:00:02.418Z,3.70
2019-03-27T02:02:32.622Z,3.50
2019-03-27T02:05:02.839Z,4.10
2019-03-27T02:07:33.873Z,3.65
2019-03-27T02:10:05.192Z,3.35
2019-03-27T02:12:35.374Z,3.62
2019-03-27T02:15:09.323Z,4.00
2019-03-27T02:17:39.536Z,3.90
2019-03-27T02:20:11.302Z,4.30
2019-03-27T02:22:41.512Z,3.90
2019-03-27T02:25:13.260Z,4.08
2019-03-27T02:27:43.879Z,3.45
2019-03-27T02:30:15.723Z,4.20
2019-03-27T02:32:45.988Z,4.25
2019-03-27T02:35:16.165Z,3.52
2019-03-27T02:37:46.352Z,4.00
2019-03-27T02:40:16.569Z,3.83
2019-03-27T02:42:46.799Z,3.85
2019-03-27T02:45:16.981Z,4.12
2019-03-27T02:47:47.314Z,4.30
2019-03-27T02:50:17.523Z,4.30
2019-03-27T02:52:47.847Z,4.40
2019-03-27T02:55:19.688Z,4.28
2019-03-27T02:57:53.027Z,4.37
2019-03-27T03:00:23.226Z,4.05
2019-03-27T03:02:53.420Z,4.05
2019-03-27T03:05:23.715Z,4.40
2019-03-27T03:07:53.928Z,4.00
2019-03-27T03:10:24.116Z,3.83
2019-03-27T03:12:54.315Z,3.98
2019-03-27T03:15:26.415Z,4.05
2019-03-27T03:17:56.665Z,4.53
2019-03-27T03:20:26.964Z,5.40
2019-03-27T03:22:58.784Z,5.10
2019-03-27T03:25:29.030Z,5.12
2019-03-27T03:27:59.301Z,4.50
2019-03-27T03:30:29.512Z,4.65
2019-03-27T03:32:59.695Z,5.45
2019-03-27T03:35:29.983Z,4.75
2019-03-27T03:38:00.161Z,4.80
2019-03-27T03:40:30.408Z,3.72
2019-03-27T03:43:00.648Z,4.58
2019-03-27T03:45:30.810Z,4.90
2019-03-27T03:48:00.994Z,5.28
2019-03-27T03:50:38.610Z,5.20
2019-03-27T03:53:10.093Z,4.70
2019-03-27T03:55:40.471Z,4.65
2019-03-27T03:58:12.035Z,4.50
2019-03-27T04:00:42.548Z,4.92
2019-03-27T04:03:12.728Z,4.80
2019-03-27T04:05:43.101Z,4.72
2019-03-27T04:08:13.360Z,5.28
2019-03-27T04:10:45.315Z,4.70
2019-03-27T04:13:15.646Z,4.87
2019-03-27T04:15:47.633Z,5.37
2019-03-27T04:18:19.456Z,4.67
2019-03-27T04:20:49.751Z,5.47
2019-03-27T04:23:20.165Z,5.10
2019-03-27T04:26:11.672Z,5.50
2019-03-27T04:28:22.482Z,5.15
2019-03-27T04:30:52.732Z,5.28
2019-03-27T04:33:22.908Z,5.20
2019-03-27T04:35:53.221Z,5.37
2019-03-27T04:38:23.490Z,5.83
2019-03-27T04:40:53.665Z,6.15
2019-03-27T04:43:23.879Z,5.28
2019-03-27T04:45:54.046Z,5.40
2019-03-27T04:48:24.385Z,5.75
2019-03-27T04:50:54.584Z,5.65
2019-03-27T04:53:24.764Z,5.78
2019-03-27T04:55:54.961Z,5.58
2019-03-27T04:58:26.711Z,5.90
2019-03-27T05:00:56.950Z,5.25
2019-03-27T05:03:27.129Z,6.20
2019-03-27T05:05:57.401Z,6.30
2019-03-27T05:08:27.603Z,7.20
2019-03-27T05:10:59.339Z,6.58
2019-03-27T05:13:29.556Z,6.42
2019-03-27T05:15:59.744Z,6.58
2019-03-27T05:18:29.960Z,6.67
2019-03-27T05:21:00.148Z,6.58
2019-03-27T05:23:30.341Z,6.60
2019-03-27T05:26:00.564Z,6.97
2019-03-27T05:28:30.732Z,6.47
2019-03-27T05:31:00.928Z,6.87
2019-03-27T05:33:32.704Z,6.95
2019-03-27T05:36:03.285Z,6.45
2019-03-27T05:38:33.473Z,6.75
2019-03-27T05:41:03.676Z,6.70
2019-03-27T05:43:33.945Z,6.37
2019-03-27T05:46:04.134Z,6.90
2019-03-27T05:48:34.648Z,7.03
2019-03-27T05:51:04.879Z,7.33
2019-03-27T05:53:35.207Z,7.62
2019-03-27T05:56:05.426Z,7.20
2019-03-27T05:58:35.711Z,6.60
2019-03-27T06:01:05.906Z,7.05
2019-03-27T06:03:37.724Z,7.65
2019-03-27T06:06:09.524Z,6.67
2019-03-27T06:08:39.696Z,7.30
2019-03-27T06:11:09.962Z,7.62
2019-03-27T06:13:40.158Z,7.42
2019-03-27T06:16:10.356Z,7.42
2019-03-27T06:18:40.540Z,7.92
2019-03-27T06:21:10.761Z,7.95
2019-03-27T06:23:40.959Z,7.55
2019-03-27T06:26:11.317Z,7.62
2019-03-27T06:28:41.629Z,7.37
2019-03-27T06:31:13.362Z,7.67
2019-03-27T06:33:43.588Z,8.45
2019-03-27T06:36:13.774Z,8.25
2019-03-27T06:38:43.984Z,8.35
2019-03-27T06:41:14.164Z,8.30
2019-03-27T06:43:44.381Z,9.18
2019-03-27T06:46:14.614Z,7.87
2019-03-27T06:48:44.796Z,9.05
2019-03-27T06:51:15.075Z,8.30
2019-03-27T06:53:45.284Z,8.75
2019-03-27T06:56:15.495Z,7.58
2019-03-27T06:58:54.382Z,8.08
2019-03-27T07:01:17.885Z,9.18
2019-03-27T07:03:48.180Z,9.70
2019-03-27T07:06:20.057Z,8.00
2019-03-27T07:08:50.269Z,8.88
2019-03-27T07:11:20.456Z,8.20
2019-03-27T07:13:50.708Z,8.90
2019-03-27T07:16:20.955Z,9.63
2019-03-27T07:18:51.206Z,9.48
2019-03-27T07:21:23.122Z,9.13
2019-03-27T07:23:53.313Z,10.20
2019-03-27T07:26:23.528Z,9.20
2019-03-27T07:28:53.775Z,8.75
2019-03-27T07:31:23.988Z,8.73
2019-03-27T07:33:54.196Z,9.60
2019-03-27T07:36:24.420Z,9.10
2019-03-27T07:38:54.616Z,8.78
2019-03-27T07:41:24.819Z,8.63
2019-03-27T07:43:55.021Z,9.60
2019-03-27T07:46:25.263Z,8.98
2019-03-27T07:48:55.501Z,8.55
2019-03-27T07:51:27.488Z,7.75
2019-03-27T07:53:57.721Z,7.60
2019-03-27T07:56:27.936Z,7.67
2019-03-27T07:58:59.934Z,7.30
2019-03-27T08:01:30.375Z,7.50
2019-03-27T08:04:00.641Z,6.33
2019-03-27T08:06:30.916Z,5.70
2019-03-27T08:09:01.204Z,6.80
2019-03-27T08:11:31.545Z,6.83
2019-03-27T08:14:01.931Z,6.50
2019-03-27T08:16:32.123Z,7.22
2019-03-27T08:19:07.849Z,6.22
2019-03-27T08:21:34.264Z,6.85
2019-03-27T08:24:04.440Z,6.45
2019-03-27T08:26:34.671Z,6.80
2019-03-27T08:29:04.970Z,7.33
2019-03-27T08:31:36.713Z,6.70
2019-03-27T08:34:06.925Z,7.17
2019-03-27T08:36:37.130Z,6.90
2019-03-27T08:39:08.452Z,6.42
2019-03-27T08:41:38.710Z,6.42
2019-03-27T08:44:09.040Z,7.05
2019-03-27T08:46:39.243Z,6.42
2019-03-27T08:49:21.288Z,6.12
2019-03-27T08:51:42.950Z,6.60
2019-03-27T08:54:13.142Z,6.35
2019-03-27T08:56:43.499Z,6.08
2019-03-27T08:59:13.774Z,6.30
2019-03-27T09:01:45.591Z,4.85
2019-03-27T09:04:15.828Z,5.58
2019-03-27T09:06:46.040Z,5.05
2019-03-27T09:09:16.222Z,6.78
2019-03-27T09:11:46.432Z,5.28
2019-03-27T09:14:16.661Z,6.05
2019-03-27T09:16:47.063Z,6.35
2019-03-27T09:19:17.344Z,6.58
2019-03-27T09:21:47.640Z,6.50
2019-03-27T09:24:17.853Z,6.42
2019-03-27T09:26:48.049Z,4.37
2019-03-27T09:29:18.361Z,6.60
2019-03-27T09:31:50.380Z,5.33
2019-03-27T09:34:20.627Z,5.90
2019-03-27T09:36:50.852Z,6.33
2019-03-27T09:39:21.021Z,5.45
2019-03-27T09:41:51.239Z,6.37
2019-03-27T09:44:21.483Z,6.20
2019-03-27T09:46:53.305Z,5.65
2019-03-27T09:49:23.559Z,6.08
2019-03-27T09:51:55.355Z,5.97
2019-03-27T09:54:25.552Z,6.00
2019-03-27T09:56:55.739Z,5.70
2019-03-27T09:59:25.967Z,5.97
2019-03-27T10:01:56.160Z,5.95
2019-03-27T10:04:26.364Z,5.80
2019-03-27T10:06:56.584Z,6.20
2019-03-27T10:09:26.777Z,5.30
2019-03-27T10:11:56.956Z,6.42
2019-03-27T10:14:27.299Z,5.90
2019-03-27T10:16:57.667Z,6.87
2019-03-27T10:19:29.416Z,6.15
2019-03-27T10:21:59.649Z,6.45
2019-03-27T10:24:29.836Z,6.00
2019-03-27T10:27:00.025Z,6.12
2019-03-27T10:29:30.255Z,5.78
2019-03-27T10:32:00.440Z,6.00
2019-03-27T10:34:30.622Z,5.95
2019-03-27T10:37:00.833Z,6.30
2019-03-27T10:39:31.025Z,5.58
2019-03-27T10:42:01.240Z,5.47
2019-03-27T10:44:31.455Z,6.10
2019-03-27T10:47:01.644Z,5.58
2019-03-27T10:49:34.429Z,4.70
2019-03-27T10:52:03.811Z,5.90
2019-03-27T10:54:34.034Z,5.53
2019-03-27T10:57:04.259Z,5.37
2019-03-27T10:59:34.463Z,5.62
2019-03-27T11:02:04.673Z,4.58
2019-03-27T11:04:34.856Z,5.55
2019-03-27T11:07:05.090Z,5.30
2019-03-27T11:09:35.270Z,5.17
2019-03-27T11:12:05.485Z,5.55
2019-03-27T11:14:38.146Z,6.05
2019-03-27T11:17:07.605Z,5.67
2019-03-27T11:19:37.848Z,5.45
2019-03-27T11:22:08.046Z,6.05
2019-03-27T11:24:39.832Z,5.80
2019-03-27T11:27:10.020Z,6.33
2019-03-27T11:29:40.594Z,5.78
2019-03-27T11:32:12.377Z,5.65
2019-03-27T11:34:42.667Z,5.60
2019-03-27T11:37:12.857Z,5.37
2019-03-27T11:39:43.080Z,6.10
2019-03-27T11:42:13.273Z,5.03
2019-03-27T11:44:43.930Z,5.47
2019-03-27T11:47:14.145Z,5.15
2019-03-27T11:49:47.516Z,5.60
2019-03-27T11:52:19.293Z,4.90
2019-03-27T11:54:49.571Z,4.65
2019-03-27T11:57:19.761Z,5.10
2019-03-27T11:59:54.130Z,5.95
2019-03-27T12:02:21.977Z,5.25
2019-03-27T12:04:52.179Z,5.00
2019-03-27T12:07:22.374Z,5.08
2019-03-27T12:09:52.781Z,4.40
2019-03-27T12:12:23.048Z,5.37
2019-03-27T12:14:53.330Z,5.22
2019-03-27T12:17:23.736Z,5.70
2019-03-27T12:19:54.076Z,4.87
2019-03-27T12:22:24.259Z,5.05
2019-03-27T12:24:54.566Z,4.10
2019-03-27T12:27:24.750Z,4.15
2019-03-27T12:29:56.511Z,4.20
2019-03-27T12:32:26.709Z,5.35
2019-03-27T12:34:56.894Z,4.83
2019-03-27T12:37:27.178Z,3.95
2019-03-27T12:39:57.409Z,4.67
2019-03-27T12:42:28.099Z,5.58
2019-03-27T12:45:01.508Z,5.20
2019-03-27T12:47:31.836Z,4.90
2019-03-27T12:50:04.495Z,5.35
2019-03-27T12:52:34.724Z,5.03
2019-03-27T12:55:06.472Z,5.42
2019-03-27T12:57:36.775Z,5.25
2019-03-27T13:00:10.179Z,4.75
2019-03-27T13:02:40.476Z,4.50
2019-03-27T13:05:10.684Z,5.50
2019-03-27T13:07:49.908Z,5.50
2019-03-27T13:10:15.247Z,5.53
2019-03-27T13:12:45.497Z,5.00
2019-03-27T13:15:15.677Z,5.30
2019-03-27T13:17:47.468Z,5.20
2019-03-27T13:20:19.223Z,5.20
2019-03-27T13:22:49.508Z,5.85
2019-03-27T13:25:20.487Z,6.15
2019-03-27T13:27:50.703Z,7.25
2019-03-27T13:30:20.959Z,5.30
2019-03-27T13:32:51.398Z,5.00
2019-03-27T13:35:21.579Z,4.67
2019-03-27T13:37:51.907Z,5.20
2019-03-27T13:40:22.096Z,4.95
2019-03-27T13:42:52.335Z,5.85
2019-03-27T13:45:22.535Z,4.80
2019-03-27T13:47:52.800Z,5.22
2019-03-27T13:50:23.011Z,5.42
2019-03-27T13:52:53.205Z,6.05
2019-03-27T13:55:23.729Z,5.72
2019-03-27T13:57:53.962Z,6.17
2019-03-27T14:00:24.184Z,6.83
2019-03-27T14:02:54.480Z,9.30
2019-03-27T14:05:24.720Z,6.90
2019-03-27T14:07:55.121Z,6.75
2019-03-27T14:10:25.354Z,6.22
2019-03-27T14:12:55.606Z,6.20
2019-03-27T14:15:25.836Z,5.45
2019-03-27T14:17:56.102Z,6.53
2019-03-27T14:20:26.318Z,6.58
2019-03-27T14:22:56.524Z,6.47
2019-03-27T14:25:26.720Z,7.05
2019-03-27T14:27:57.071Z,6.15
2019-03-27T14:30:42.384Z,6.35
2019-03-27T14:33:12.578Z,7.25
2019-03-27T14:35:46.383Z,6.47
2019-03-27T14:38:16.732Z,6.87
2019-03-27T14:40:48.537Z,6.90
2019-03-27T14:43:18.717Z,6.80
2019-03-27T14:45:49.145Z,6.70
2019-03-27T14:48:19.358Z,6.67
2019-03-27T14:50:49.582Z,6.08
2019-03-27T14:53:19.853Z,6.33
2019-03-27T14:55:50.059Z,7.35
2019-03-27T14:58:20.378Z,7.47
2019-03-27T15:00:51.432Z,6.72
2019-03-27T15:03:23.200Z,4.58
2019-03-27T15:05:53.484Z,5.42
2019-03-27T15:08:23.675Z,6.40
2019-03-27T15:10:54.091Z,6.62
2019-03-27T15:13:27.216Z,5.97
2019-03-27T15:15:57.434Z,6.03
2019-03-27T15:18:27.758Z,5.72
2019-03-27T15:20:58.048Z,6.28
2019-03-27T15:23:29.796Z,6.35
2019-03-27T15:26:00.010Z,6.78
2019-03-27T15:28:30.337Z,6.30
2019-03-27T15:31:00.613Z,6.72
2019-03-27T15:33:30.840Z,6.55
2019-03-27T15:36:01.056Z,6.87
2019-03-27T15:38:31.397Z,6.78
2019-03-27T15:41:01.634Z,6.12
2019-03-27T15:43:31.935Z,6.50
2019-03-27T15:46:02.189Z,6.15
2019-03-27T15:48:32.435Z,7.00
2019-03-27T15:51:02.748Z,7.05
2019-03-27T15:53:33.047Z,6.30
2019-03-27T15:56:03.228Z,6.22
2019-03-27T15:58:33.541Z,6.25
2019-03-27T16:01:03.782Z,6.65
2019-03-27T16:03:33.997Z,6.28
2019-03-27T16:06:04.288Z,6.22
2019-03-27T16:08:34.491Z,5.92
2019-03-27T16:11:06.514Z,6.47
2019-03-27T16:13:36.707Z,6.12
2019-03-27T16:16:06.941Z,6.40
2019-03-27T16:18:37.133Z,7.03
2019-03-27T16:21:07.328Z,6.85
2019-03-27T16:23:37.570Z,6.30
2019-03-27T16:26:07.778Z,5.97
2019-03-27T16:28:38.003Z,6.25
2019-03-27T16:31:08.287Z,7.10
2019-03-27T16:33:39.448Z,7.00
2019-03-27T16:36:09.630Z,7.05
2019-03-27T16:38:39.867Z,8.65
2019-03-27T16:41:10.062Z,7.35
2019-03-27T16:43:44.242Z,7.87
2019-03-27T16:46:13.841Z,8.13
2019-03-27T16:48:44.223Z,7.22
2019-03-27T16:51:14.412Z,7.62
2019-03-27T16:53:44.612Z,7.50
2019-03-27T16:56:14.848Z,7.20
2019-03-27T16:58:45.080Z,7.80
2019-03-27T17:01:15.297Z,9.23
2019-03-27T17:03:45.543Z,7.25
2019-03-27T17:06:15.739Z,6.78
2019-03-27T17:08:45.988Z,7.55
2019-03-27T17:11:16.235Z,7.50
2019-03-27T17:13:47.465Z,6.78
2019-03-27T17:16:19.228Z,7.17
2019-03-27T17:18:49.521Z,6.90
2019-03-27T17:21:19.712Z,7.50
2019-03-27T17:23:49.928Z,6.85
2019-03-27T17:26:20.182Z,6.85
2019-03-27T17:28:51.269Z,7.33
2019-03-27T17:31:21.459Z,7.60
2019-03-27T17:33:51.682Z,6.28
2019-03-27T17:36:22.003Z,5.90
2019-03-27T17:38:52.185Z,6.22
2019-03-27T17:41:22.393Z,5.72
2019-03-27T17:43:52.616Z,5.62
2019-03-27T17:46:22.795Z,5.37
2019-03-27T17:48:53.136Z,5.92
2019-03-27T17:51:24.917Z,5.90
2019-03-27T17:53:55.155Z,5.97
2019-03-27T17:56:26.915Z,5.45
2019-03-27T17:58:57.115Z,5.03
2019-03-27T18:01:27.310Z,5.35
2019-03-27T18:03:57.615Z,5.50
2019-03-27T18:06:27.973Z,4.80
2019-03-27T18:08:59.717Z,5.47
2019-03-27T18:11:29.966Z,5.35
2019-03-27T18:14:01.751Z,5.65
2019-03-27T18:16:31.939Z,4.95
2019-03-27T18:19:02.242Z,5.20
2019-03-27T18:21:32.703Z,5.45
2019-03-27T18:24:02.971Z,5.72
2019-03-27T18:26:33.162Z,5.58
2019-03-27T18:29:03.441Z,4.78
2019-03-27T18:31:33.688Z,5.00
2019-03-27T18:34:03.943Z,5.20
2019-03-27T18:36:34.411Z,5.72
2019-03-27T18:39:07.536Z,5.03
2019-03-27T18:41:37.727Z,5.37
2019-03-27T18:44:08.026Z,5.28
2019-03-27T18:46:38.217Z,5.55
2019-03-27T18:49:10.477Z,5.67
2019-03-27T18:51:41.936Z,5.55
2019-03-27T18:54:12.202Z,5.65
2019-03-27T18:56:42.791Z,5.83
2019-03-27T18:59:13.035Z,5.70
2019-03-27T19:01:43.275Z,6.33
2019-03-27T19:04:13.507Z,6.72
2019-03-27T19:06:43.734Z,6.28
2019-03-27T19:09:13.932Z,6.25
2019-03-27T19:11:44.168Z,6.30
2019-03-27T19:14:16.123Z,6.65
2019-03-27T19:16:46.448Z,6.22
2019-03-27T19:19:17.556Z,6.20
2019-03-27T19:21:47.895Z,6.62
2019-03-27T19:24:19.674Z,6.95
2019-03-27T19:26:49.926Z,7.50
2019-03-27T19:29:21.431Z,6.67
2019-03-27T19:31:51.625Z,7.83
2019-03-27T19:34:21.849Z,7.00
2019-03-27T19:36:52.107Z,7.17
2019-03-27T19:39:23.913Z,7.25
2019-03-27T19:41:54.265Z,7.65
2019-03-27T19:44:24.691Z,7.25
2019-03-27T19:46:56.607Z,7.67
2019-03-27T19:49:26.806Z,7.97
2019-03-27T19:51:58.692Z,8.08
2019-03-27T19:54:28.880Z,8.53
2019-03-27T19:56:59.126Z,8.95
2019-03-27T19:59:29.405Z,8.55
2019-03-27T20:01:59.761Z,9.33
2019-03-27T20:04:31.501Z,9.40
2019-03-27T20:07:03.349Z,9.38
2019-03-27T20:09:33.534Z,10.20
2019-03-27T20:12:03.747Z,9.33
2019-03-27T20:14:33.942Z,9.70
2019-03-27T20:17:04.159Z,10.63
2019-03-27T20:19:34.377Z,10.10
2019-03-27T20:22:04.713Z,10.53
2019-03-27T20:24:40.835Z,10.10
2019-03-27T20:27:07.076Z,10.03
2019-03-27T20:29:37.365Z,9.80
2019-03-27T20:32:07.566Z,11.38
2019-03-27T20:34:37.913Z,10.95
2019-03-27T20:37:08.120Z,10.53
2019-03-27T20:39:38.446Z,10.60
2019-03-27T20:42:08.820Z,11.18
2019-03-27T20:44:39.146Z,10.78
2019-03-27T20:47:10.463Z,10.08
2019-03-27T20:49:40.704Z,11.70
2019-03-27T20:52:10.970Z,11.18
2019-03-27T20:54:53.955Z,11.88
2019-03-27T20:57:13.192Z,11.97
2019-03-27T20:59:43.380Z,11.28
2019-03-27T21:02:13.610Z,12.55
2019-03-27T21:04:43.856Z,12.00
2019-03-27T21:07:15.613Z,11.60
2019-03-27T21:09:45.848Z,10.68
2019-03-27T21:12:16.186Z,12.45
2019-03-27T21:14:46.482Z,12.70
2019-03-27T21:17:16.729Z,12.25
2019-03-27T21:19:47.090Z,12.25
2019-03-27T21:22:17.452Z,12.30
2019-03-27T21:24:47.741Z,13.10
2019-03-27T21:27:18.106Z,12.68
2019-03-27T21:29:48.471Z,12.28
2019-03-27T21:32:20.274Z,12.47
2019-03-27T21:34:50.572Z,13.13
2019-03-27T21:37:20.952Z,11.63
2019-03-27T21:39:51.200Z,12.35
2019-03-27T21:42:21.396Z,12.98
2019-03-27T21:44:51.713Z,12.88
2019-03-27T21:47:21.941Z,12.60
2019-03-27T21:49:52.194Z,13.55
2019-03-27T21:52:22.796Z,13.03
2019-03-27T21:54:53.111Z,12.98
2019-03-27T21:57:23.327Z,12.43
2019-03-27T21:59:55.284Z,13.30
2019-03-27T22:02:27.322Z,14.45
2019-03-27T22:04:57.607Z,13.85
2019-03-27T22:07:29.149Z,13.43
2019-03-27T22:09:59.388Z,14.20
2019-03-27T22:12:29.711Z,13.22
2019-03-27T22:15:00.200Z,13.93
2019-03-27T22:17:30.672Z,13.78
2019-03-27T22:20:00.879Z,14.00
2019-03-27T22:22:31.147Z,14.53
2019-03-27T22:25:01.413Z,15.13
2019-03-27T22:27:31.694Z,15.55
2019-03-27T22:30:01.937Z,14.18
2019-03-27T22:32:32.220Z,13.68
2019-03-27T22:35:02.426Z,14.45
2019-03-27T22:37:32.722Z,14.58
2019-03-27T22:40:04.641Z,14.83
2019-03-27T22:42:35.656Z,21.02
2019-03-27T22:45:07.441Z,15.03
2019-03-27T22:47:37.627Z,14.65
2019-03-27T22:50:09.478Z,15.32
2019-03-27T22:52:39.662Z,15.72
2019-03-27T22:55:11.453Z,15.35
2019-03-27T22:57:41.643Z,13.83
2019-03-27T23:00:11.863Z,15.15
2019-03-27T23:02:42.060Z,15.90
2019-03-27T23:05:12.368Z,15.63
2019-03-27T23:07:43.424Z,16.02
2019-03-27T23:10:15.167Z,15.95
2019-03-27T23:12:45.421Z,16.27
2019-03-27T23:15:15.710Z,14.85
2019-03-27T23:17:47.451Z,16.20
2019-03-27T23:20:19.201Z,17.87
2019-03-27T23:22:49.446Z,15.58
2019-03-27T23:25:19.630Z,16.52
2019-03-27T23:27:51.463Z,17.20
2019-03-27T23:30:21.760Z,15.85
2019-03-27T23:32:53.542Z,15.43
2019-03-27T23:35:23.728Z,15.63
2019-03-27T23:37:53.959Z,16.30
2019-03-27T23:40:24.233Z,15.75
2019-03-27T23:42:54.433Z,15.83
2019-03-27T23:45:24.686Z,16.67
2019-03-27T23:47:54.948Z,17.17
2019-03-27T23:50:25.183Z,16.87
2019-03-27T23:52:55.533Z,17.50
2019-03-27T23:55:25.711Z,16.60
2019-03-27T23:57:56.000Z,15.93
